Time;durP1;ratioP1;P1;durP2;ratioP2;P2;SDS_P1;SDS_P2;PMS_P1;PMS_P2;Temp;Humidity;BMP_temperature;BMP_pressure;BME280_temperature;BME280_humidity;BME280_pressure;Samples;Min_cycle;Max_cycle;Signal;HPM_P1;HPM_P2
2021/10/01 00:00:18;;;;;;;2.72;1.35;;;10.30;96.40;;;;;;5074678;28;20024;-76
2021/10/01 00:02:44;;;;;;;4.82;1.27;;;10.30;96.50;;;;;;5072861;28;20149;-77
2021/10/01 00:05:09;;;;;;;4.18;1.40;;;10.30;96.40;;;;;;5072946;28;20032;-77
2021/10/01 00:07:35;;;;;;;3.58;1.30;;;10.30;96.40;;;;;;5072636;28;20127;-77
2021/10/01 00:10:01;;;;;;;3.65;1.60;;;10.30;96.40;;;;;;5073495;28;20040;-76
2021/10/01 00:12:27;;;;;;;3.38;1.10;;;10.20;96.40;;;;;;5072368;28;20025;-77
2021/10/01 00:14:52;;;;;;;7.13;1.23;;;10.20;96.70;;;;;;5074218;28;20021;-76
2021/10/01 00:17:19;;;;;;;2.38;1.10;;;10.20;96.50;;;;;;5072664;28;20114;-76
2021/10/01 00:19:45;;;;;;;4.00;1.17;;;10.20;96.60;;;;;;5072621;28;20020;-76
2021/10/01 00:22:10;;;;;;;2.88;1.25;;;10.10;96.70;;;;;;5072852;28;20028;-76
2021/10/01 00:24:36;;;;;;;4.13;1.08;;;10.10;96.70;;;;;;5073111;28;20032;-76
2021/10/01 00:27:03;;;;;;;3.03;1.33;;;10.20;96.60;;;;;;5072937;28;20024;-77
2021/10/01 00:29:29;;;;;;;3.67;1.00;;;10.20;96.50;;;;;;5072426;28;20033;-77
2021/10/01 00:31:54;;;;;;;2.63;1.02;;;10.30;96.40;;;;;;5072638;28;20025;-77
2021/10/01 00:34:20;;;;;;;3.30;1.30;;;10.20;96.40;;;;;;5072882;28;20029;-76
2021/10/01 00:36:45;;;;;;;4.10;0.98;;;10.20;96.30;;;;;;5073108;28;20056;-76
2021/10/01 00:39:11;;;;;;;5.93;1.30;;;10.20;96.30;;;;;;5073666;28;20461;-76
2021/10/01 00:41:37;;;;;;;4.70;1.30;;;10.10;96.50;;;;;;5072071;28;20025;-77
2021/10/01 00:44:04;;;;;;;3.25;1.00;;;10.10;96.30;;;;;;5072526;28;20024;-77
2021/10/01 00:46:30;;;;;;;1.05;0.70;;;10.10;96.20;;;;;;5071970;28;20040;-77
2021/10/01 00:48:56;;;;;;;1.52;0.90;;;10.10;96.10;;;;;;5073760;28;20024;-76
2021/10/01 00:51:23;;;;;;;1.65;0.75;;;10.00;96.20;;;;;;5072467;28;20424;-77
2021/10/01 00:53:51;;;;;;;1.75;0.70;;;9.90;96.30;;;;;;5072134;28;20056;-77
2021/10/01 00:56:18;;;;;;;3.03;0.88;;;10.00;96.30;;;;;;5071871;28;20052;-76
2021/10/01 00:58:44;;;;;;;2.38;0.90;;;9.90;96.20;;;;;;5071934;28;20028;-76
2021/10/01 01:01:10;;;;;;;1.83;0.82;;;9.80;96.40;;;;;;5072169;28;20127;-76
2021/10/01 01:04:00;;;;;;;1.17;0.50;;;9.90;96.40;;;;;;5073267;28;20047;-76
2021/10/01 01:06:55;;;;;;;4.65;0.73;;;10.00;96.20;;;;;;5106003;28;20025;-77
2021/10/01 01:09:35;;;;;;;3.80;0.77;;;10.00;95.80;;;;;;5073793;28;20032;-76
2021/10/01 01:12:10;;;;;;;5.65;1.10;;;10.10;95.80;;;;;;5089248;28;20025;-76
2021/10/01 01:14:47;;;;;;;1.65;0.80;;;10.10;95.60;;;;;;5072693;28;20031;-76
2021/10/01 01:17:27;;;;;;;1.92;0.80;;;10.00;95.70;;;;;;5088954;28;20036;-76
2021/10/01 01:20:28;;;;;;;2.08;0.70;;;10.00;95.80;;;;;;5072597;28;20477;-76
2021/10/01 01:23:31;;;;;;;2.10;0.50;;;10.00;95.80;;;;;;5071625;28;20025;-76
2021/10/01 01:26:21;;;;;;;1.55;0.90;;;9.90;95.90;;;;;;5088714;28;20024;-76
2021/10/01 01:29:09;;;;;;;1.60;0.77;;;9.80;96.00;;;;;;5088427;28;20074;-76
2021/10/01 01:31:55;;;;;;;2.00;0.70;;;9.70;96.10;;;;;;5071662;28;20036;-76
2021/10/01 01:34:27;;;;;;;1.75;0.70;;;9.70;96.10;;;;;;5072915;28;20028;-76
2021/10/01 01:36:58;;;;;;;2.83;0.85;;;9.70;96.30;;;;;;5071631;28;20035;-76
2021/10/01 01:39:27;;;;;;;3.35;0.88;;;9.70;96.20;;;;;;5073237;28;20021;-76
2021/10/01 01:41:55;;;;;;;3.00;0.75;;;9.70;96.10;;;;;;5071644;28;20025;-76
2021/10/01 01:44:22;;;;;;;2.88;0.80;;;9.80;96.00;;;;;;5072083;28;20469;-76
2021/10/01 01:46:49;;;;;;;1.98;0.70;;;9.70;95.90;;;;;;5071458;28;20082;-76
2021/10/01 01:49:15;;;;;;;2.47;0.70;;;9.60;96.00;;;;;;5073034;28;20040;-76
2021/10/01 01:51:41;;;;;;;2.55;0.77;;;9.70;96.30;;;;;;5071265;28;20033;-77
2021/10/01 01:54:07;;;;;;;2.15;0.90;;;9.60;95.80;;;;;;5071969;28;20029;-76
2021/10/01 01:56:34;;;;;;;2.20;1.20;;;9.60;95.90;;;;;;5071254;28;20045;-77
2021/10/01 01:59:01;;;;;;;1.60;0.70;;;9.60;95.90;;;;;;5071854;28;20032;-76
2021/10/01 02:01:31;;;;;;;1.63;0.63;;;9.50;95.90;;;;;;5071745;28;20024;-76
2021/10/01 02:03:59;;;;;;;3.20;0.88;;;9.40;96.00;;;;;;5071350;28;20380;-76
2021/10/01 02:06:26;;;;;;;2.13;0.88;;;9.30;96.00;;;;;;5072848;28;20028;-76
2021/10/01 02:08:53;;;;;;;2.03;0.70;;;9.30;96.10;;;;;;5072698;28;20079;-77
2021/10/01 02:11:20;;;;;;;1.33;0.80;;;9.20;96.20;;;;;;5071646;28;20035;-76
2021/10/01 02:13:46;;;;;;;3.53;0.88;;;9.20;96.30;;;;;;5073217;28;20446;-76
2021/10/01 02:16:13;;;;;;;2.75;0.82;;;9.20;96.50;;;;;;5075415;28;20028;-76
2021/10/01 02:18:41;;;;;;;1.25;0.70;;;9.20;96.50;;;;;;5075025;28;20024;-77
2021/10/01 02:21:08;;;;;;;2.30;0.80;;;9.30;96.40;;;;;;5075307;28;20021;-76
2021/10/01 02:23:34;;;;;;;1.35;0.70;;;9.30;96.40;;;;;;5074663;28;20081;-79
2021/10/01 02:28:54;;;;;;;2.90;0.90;;;9.30;96.50;;;;;;5075912;28;20474;-76
2021/10/01 02:31:26;;;;;;;2.17;0.85;;;9.20;96.50;;;;;;5075234;28;20036;-76
2021/10/01 02:33:54;;;;;;;0.95;0.73;;;9.20;96.50;;;;;;5074629;28;20098;-76
2021/10/01 02:36:19;;;;;;;1.85;0.50;;;9.10;96.70;;;;;;5074903;28;20032;-76
2021/10/01 02:38:45;;;;;;;2.30;0.77;;;9.10;96.70;;;;;;5075308;28;20025;-76
2021/10/01 02:41:11;;;;;;;1.80;0.80;;;9.00;96.70;;;;;;5075278;28;20033;-76
2021/10/01 02:43:37;;;;;;;6.28;1.40;;;9.00;96.60;;;;;;5074531;28;20032;-77
2021/10/01 02:46:02;;;;;;;1.50;0.85;;;9.00;96.50;;;;;;5075791;28;20035;-76
2021/10/01 02:48:28;;;;;;;2.60;0.73;;;9.00;96.50;;;;;;5074802;28;20462;-76
2021/10/01 02:51:00;;;;;;;1.10;0.70;;;8.90;96.50;;;;;;5075641;28;20084;-76
2021/10/01 02:53:37;;;;;;;1.60;0.90;;;8.90;96.60;;;;;;5076010;28;20044;-76
2021/10/01 02:56:09;;;;;;;1.23;0.77;;;8.90;96.60;;;;;;5074833;28;20087;-76
2021/10/01 02:58:45;;;;;;;2.42;1.02;;;8.90;96.50;;;;;;5075014;28;20465;-76
2021/10/01 03:01:14;;;;;;;2.47;0.50;;;8.90;96.50;;;;;;5076021;28;20078;-76
2021/10/01 03:03:49;;;;;;;0.75;0.65;;;8.90;96.50;;;;;;5073805;28;20115;-77
2021/10/01 03:06:19;;;;;;;1.52;0.80;;;8.80;96.60;;;;;;5074821;28;20029;-76
2021/10/01 03:08:46;;;;;;;1.35;0.73;;;8.80;96.50;;;;;;5074037;28;20078;-77
2021/10/01 03:11:13;;;;;;;2.50;0.65;;;8.80;96.60;;;;;;5074795;28;20036;-77
2021/10/01 03:13:46;;;;;;;1.00;0.60;;;8.80;96.60;;;;;;5074215;28;20430;-76
2021/10/01 03:16:12;;;;;;;0.80;0.70;;;8.80;96.60;;;;;;5074269;28;20024;-76
2021/10/01 03:18:39;;;;;;;2.80;0.80;;;8.80;96.60;;;;;;5074575;28;20359;-76
2021/10/01 03:21:06;;;;;;;1.60;0.68;;;8.80;96.50;;;;;;5075580;28;20077;-76
2021/10/01 03:23:32;;;;;;;1.50;0.70;;;8.70;96.50;;;;;;5075262;28;20032;-76
2021/10/01 03:25:59;;;;;;;3.22;0.80;;;8.80;96.40;;;;;;5074292;28;20358;-77
2021/10/01 03:28:25;;;;;;;1.00;0.57;;;8.80;96.30;;;;;;5074214;28;20078;-76
2021/10/01 03:30:51;;;;;;;1.17;0.90;;;8.70;96.20;;;;;;5074715;28;20039;-77
2021/10/01 03:33:17;;;;;;;1.23;0.65;;;8.70;96.40;;;;;;5074120;28;20496;-76
2021/10/01 03:35:44;;;;;;;1.63;0.90;;;8.50;96.50;;;;;;5073112;28;20028;-77
2021/10/01 03:38:10;;;;;;;1.05;0.70;;;8.50;96.60;;;;;;5074975;28;20043;-76
2021/10/01 03:40:36;;;;;;;4.38;0.80;;;8.50;96.60;;;;;;5074091;28;20074;-76
2021/10/01 03:43:02;;;;;;;2.45;0.68;;;8.50;96.70;;;;;;5074101;28;20029;-76
2021/10/01 03:45:28;;;;;;;1.98;0.60;;;8.40;96.70;;;;;;5073900;28;20462;-76
2021/10/01 03:47:54;;;;;;;1.35;0.73;;;8.40;96.80;;;;;;5072452;28;20465;-76
2021/10/01 03:50:20;;;;;;;1.80;0.60;;;8.40;97.00;;;;;;5073664;28;20056;-76
2021/10/01 03:52:46;;;;;;;1.55;0.75;;;8.40;97.00;;;;;;5073154;28;20469;-76
2021/10/01 03:55:19;;;;;;;1.15;0.70;;;8.40;96.90;;;;;;5073344;28;20067;-76
2021/10/01 03:57:45;;;;;;;2.58;0.80;;;8.40;96.70;;;;;;5072870;28;20048;-76
2021/10/01 04:00:11;;;;;;;2.80;0.98;;;8.40;96.70;;;;;;5074830;28;20055;-76
2021/10/01 04:02:36;;;;;;;1.83;0.98;;;8.40;96.60;;;;;;5074395;28;20383;-76
2021/10/01 04:05:02;;;;;;;1.40;0.80;;;8.40;96.70;;;;;;5074228;28;20037;-76
2021/10/01 04:07:28;;;;;;;0.73;0.57;;;8.40;96.70;;;;;;5073277;28;20029;-77
2021/10/01 04:09:54;;;;;;;1.75;0.60;;;8.40;96.60;;;;;;5072867;28;20024;-77
2021/10/01 04:12:19;;;;;;;2.35;0.80;;;8.40;96.60;;;;;;5073610;28;20024;-76
2021/10/01 04:14:45;;;;;;;2.85;0.75;;;8.40;96.70;;;;;;5072781;28;20474;-77
2021/10/01 04:17:11;;;;;;;1.98;0.70;;;8.40;96.70;;;;;;5073233;28;20029;-76
2021/10/01 04:19:36;;;;;;;1.38;0.73;;;8.30;97.00;;;;;;5073030;28;20111;-76
2021/10/01 04:22:02;;;;;;;2.33;0.70;;;8.30;97.10;;;;;;5072521;28;20497;-77
2021/10/01 04:24:28;;;;;;;4.40;0.82;;;8.30;97.10;;;;;;5074178;28;20536;-77
2021/10/01 04:26:53;;;;;;;1.83;0.90;;;8.30;97.30;;;;;;5073469;28;20063;-76
2021/10/01 04:29:19;;;;;;;1.35;0.80;;;8.30;97.30;;;;;;5073038;28;20473;-76
2021/10/01 04:31:45;;;;;;;1.73;1.15;;;8.30;97.20;;;;;;5072602;28;20028;-76
2021/10/01 04:34:10;;;;;;;1.73;0.80;;;8.20;97.40;;;;;;5072476;28;20383;-76
2021/10/01 04:36:36;;;;;;;2.55;0.90;;;8.20;97.40;;;;;;5071953;28;20033;-76
2021/10/01 04:39:04;;;;;;;1.73;0.93;;;8.20;97.40;;;;;;5072048;28;20056;-76
2021/10/01 04:41:29;;;;;;;0.98;0.63;;;8.20;97.50;;;;;;5072856;28;20477;-77
2021/10/01 04:43:56;;;;;;;1.88;0.63;;;8.20;97.50;;;;;;5072247;28;20032;-77
2021/10/01 04:46:22;;;;;;;0.93;0.60;;;8.20;97.40;;;;;;5073858;28;20410;-76
2021/10/01 04:48:49;;;;;;;2.63;0.82;;;8.10;97.40;;;;;;5072039;28;20035;-77
2021/10/01 04:51:15;;;;;;;1.92;0.85;;;8.10;97.50;;;;;;5072403;28;20024;-76
2021/10/01 04:53:41;;;;;;;1.73;0.90;;;8.10;97.50;;;;;;5073495;28;20017;-76
2021/10/01 04:56:07;;;;;;;2.08;0.70;;;8.10;97.20;;;;;;5071808;28;20444;-76
2021/10/01 04:58:32;;;;;;;1.20;0.70;;;8.00;97.30;;;;;;5073488;28;20047;-76
2021/10/01 05:01:04;;;;;;;1.63;0.68;;;8.10;97.20;;;;;;5072707;28;20024;-76
2021/10/01 05:03:30;;;;;;;;;;;8.10;97.10;;;;;;5072753;28;20052;-76
2021/10/01 05:05:56;;;;;;;3.38;0.80;;;8.00;97.10;;;;;;5072881;28;19969;-76
2021/10/01 05:08:22;;;;;;;1.95;0.85;;;8.00;97.10;;;;;;5073220;28;20024;-77
2021/10/01 05:10:48;;;;;;;0.80;0.60;;;7.90;97.20;;;;;;5071781;28;20033;-77
2021/10/01 05:13:13;;;;;;;2.65;0.98;;;7.90;97.40;;;;;;5073175;28;20141;-77
2021/10/01 05:15:42;;;;;;;2.03;0.70;;;7.90;97.50;;;;;;5073344;28;20025;-76
2021/10/01 05:18:08;;;;;;;1.20;0.80;;;7.90;97.40;;;;;;5071737;28;20062;-77
2021/10/01 05:20:34;;;;;;;2.58;0.80;;;7.90;97.40;;;;;;5073148;28;20106;-76
2021/10/01 05:23:00;;;;;;;1.65;0.90;;;8.00;97.40;;;;;;5071475;28;20389;-77
2021/10/01 05:25:26;;;;;;;6.25;1.25;;;7.90;97.40;;;;;;5072163;28;20028;-76
2021/10/01 05:27:55;;;;;;;1.77;0.80;;;8.00;97.30;;;;;;5071475;28;20033;-75
2021/10/01 05:30:21;;;;;;;2.50;0.90;;;8.10;97.20;;;;;;5073293;28;20032;-75
2021/10/01 05:32:47;;;;;;;1.40;0.85;;;8.10;97.10;;;;;;5071365;28;20025;-76
2021/10/01 05:35:13;;;;;;;1.98;0.80;;;8.10;97.20;;;;;;5073046;28;20090;-75
2021/10/01 05:37:38;;;;;;;2.92;0.65;;;8.10;97.20;;;;;;5072974;28;20106;-75
2021/10/01 05:40:05;;;;;;;2.47;0.88;;;8.10;97.10;;;;;;5071511;28;20191;-75
2021/10/01 05:42:31;;;;;;;4.13;0.88;;;8.10;97.20;;;;;;5071755;28;20492;-75
2021/10/01 05:44:57;;;;;;;1.65;0.80;;;8.00;97.40;;;;;;5072480;28;20103;-75
2021/10/01 05:47:23;;;;;;;1.73;0.80;;;8.00;97.40;;;;;;5071743;28;20032;-75
2021/10/01 05:49:49;;;;;;;2.05;0.77;;;8.00;97.40;;;;;;5076255;28;20039;-76
2021/10/01 05:54:40;;;;;;;2.50;1.00;;;8.00;97.50;;;;;;5076830;28;20028;-75
2021/10/01 05:57:08;;;;;;;2.22;1.13;;;8.00;97.70;;;;;;5075129;28;20437;-75
2021/10/01 05:59:37;;;;;;;3.45;1.10;;;8.00;97.50;;;;;;5075934;28;20046;-75
2021/10/01 06:02:03;;;;;;;2.05;1.00;;;8.00;97.50;;;;;;5075199;28;20021;-75
2021/10/01 06:04:30;;;;;;;1.67;1.10;;;8.00;97.60;;;;;;5075653;28;20123;-75
2021/10/01 06:06:55;;;;;;;2.45;0.80;;;8.00;97.60;;;;;;5075095;28;20100;-76
2021/10/01 06:09:22;;;;;;;1.92;0.95;;;8.00;97.60;;;;;;5075728;28;20024;-75
2021/10/01 06:11:49;;;;;;;2.28;0.80;;;8.00;97.70;;;;;;5075917;28;20021;-76
2021/10/01 06:14:20;;;;;;;1.52;0.90;;;8.00;97.60;;;;;;5075651;28;20025;-75
2021/10/01 06:16:46;;;;;;;6.25;0.80;;;8.10;97.50;;;;;;5076572;28;20115;-75
2021/10/01 06:19:12;;;;;;;2.83;0.80;;;8.00;97.50;;;;;;5075957;28;20124;-75
2021/10/01 06:21:37;;;;;;;3.70;0.73;;;8.10;97.70;;;;;;5075170;28;20024;-75
2021/10/01 06:24:03;;;;;;;2.00;0.88;;;8.10;97.70;;;;;;5074903;28;20029;-75
2021/10/01 06:26:29;;;;;;;1.42;0.98;;;8.10;97.60;;;;;;5075126;28;20020;-75
2021/10/01 06:28:55;;;;;;;2.72;0.90;;;8.10;97.60;;;;;;5074529;28;20028;-75
2021/10/01 06:31:20;;;;;;;1.42;1.00;;;8.20;97.70;;;;;;5075247;28;20036;-74
2021/10/01 06:33:46;;;;;;;4.18;1.05;;;8.30;97.70;;;;;;5075010;28;20029;-74
2021/10/01 06:36:14;;;;;;;2.35;0.85;;;8.30;97.70;;;;;;5074367;28;20028;-75
2021/10/01 06:38:40;;;;;;;1.05;0.80;;;8.30;97.50;;;;;;5074919;28;20033;-75
2021/10/01 06:41:06;;;;;;;2.38;1.00;;;8.40;97.70;;;;;;5074293;28;20035;-76
2021/10/01 06:43:32;;;;;;;1.90;1.10;;;8.40;97.70;;;;;;5074269;28;20404;-75
2021/10/01 06:45:58;;;;;;;1.63;1.00;;;8.40;97.70;;;;;;5074007;28;20367;-76
2021/10/01 06:48:32;;;;;;;3.92;1.08;;;8.40;97.70;;;;;;5074509;28;20036;-75
2021/10/01 08:20:46;;;;;;;4.20;1.20;;;10.50;95.60;;;;;;5074183;28;20051;-76
2021/10/01 08:23:12;;;;;;;4.40;1.38;;;10.60;95.60;;;;;;5072586;28;20020;-76
2021/10/01 08:25:38;;;;;;;4.72;1.40;;;10.60;95.40;;;;;;5073163;28;20024;-77
2021/10/01 08:28:05;;;;;;;4.03;1.52;;;10.60;95.30;;;;;;5072343;28;20033;-76
2021/10/01 08:30:31;;;;;;;4.00;1.25;;;10.60;95.50;;;;;;5072866;28;20028;-76
2021/10/01 08:32:57;;;;;;;2.35;1.13;;;10.70;95.00;;;;;;5073449;28;20032;-78
2021/10/01 08:35:24;;;;;;;2.72;1.15;;;10.80;95.10;;;;;;5072754;28;20480;-76
2021/10/01 08:37:51;;;;;;;4.07;1.50;;;10.80;95.10;;;;;;5072882;28;20087;-76
2021/10/01 08:40:18;;;;;;;5.47;2.33;;;10.80;95.00;;;;;;5073388;28;20029;-76
2021/10/01 08:42:45;;;;;;;7.03;3.50;;;10.90;94.60;;;;;;5072824;28;20482;-76
2021/10/01 08:45:13;;;;;;;3.53;1.98;;;11.00;94.50;;;;;;5073661;28;20112;-77
2021/10/01 08:47:40;;;;;;;4.38;1.75;;;11.00;94.40;;;;;;5072633;28;20120;-76
2021/10/01 08:50:09;;;;;;;4.18;1.65;;;11.10;94.50;;;;;;5073106;28;20035;-76
2021/10/01 08:52:35;;;;;;;5.00;1.42;;;11.00;94.40;;;;;;5072748;28;20052;-77
2021/10/01 08:55:03;;;;;;;4.15;1.33;;;11.10;94.30;;;;;;5073149;28;20131;-77
2021/10/01 08:57:30;;;;;;;5.25;1.50;;;11.10;94.40;;;;;;5072602;28;20086;-77
2021/10/01 08:59:57;;;;;;;5.03;1.75;;;11.20;94.30;;;;;;5072584;28;20025;-76
2021/10/01 09:02:23;;;;;;;3.85;1.40;;;11.20;94.20;;;;;;5072514;28;20025;-77
2021/10/01 09:04:49;;;;;;;2.40;1.20;;;11.30;94.20;;;;;;5073850;28;20033;-76
2021/10/01 09:07:14;;;;;;;1.70;1.05;;;11.30;94.20;;;;;;5073137;28;20040;-77
2021/10/01 09:09:43;;;;;;;2.05;1.27;;;11.40;94.20;;;;;;5072534;28;20032;-76
2021/10/01 09:12:14;;;;;;;3.80;1.23;;;11.40;94.00;;;;;;5071939;28;20111;-76
2021/10/01 09:14:48;;;;;;;7.18;1.52;;;11.40;94.00;;;;;;5073404;28;20032;-76
2021/10/01 09:17:19;;;;;;;2.67;1.10;;;11.40;94.00;;;;;;5071871;28;20028;-76
2021/10/01 09:19:46;;;;;;;5.90;1.45;;;11.50;94.20;;;;;;5072543;28;20028;-76
2021/10/01 09:22:33;;;;;;;7.68;1.40;;;11.60;94.30;;;;;;5071635;28;20120;-77
2021/10/01 09:25:21;;;;;;;5.28;1.40;;;11.70;93.70;;;;;;5071876;28;20021;-80
2021/10/01 09:27:58;;;;;;;2.40;1.23;;;11.70;93.80;;;;;;5072396;28;20477;-76
2021/10/01 09:30:24;;;;;;;3.88;1.23;;;11.80;94.30;;;;;;5071824;28;20021;-76
2021/10/01 09:33:22;;;;;;;4.35;1.27;;;11.90;94.20;;;;;;5072122;28;20024;-76
2021/10/01 09:35:48;;;;;;;2.08;1.10;;;11.90;93.80;;;;;;5028526;28;20037;-76
2021/10/01 09:38:17;;;;;;;2.25;1.27;;;12.00;93.70;;;;;;5071547;28;20059;-76
2021/10/01 09:40:45;;;;;;;4.15;1.20;;;12.10;93.60;;;;;;5071962;28;20527;-77
2021/10/01 09:43:28;;;;;;;4.18;1.40;;;12.10;93.70;;;;;;5072904;28;20107;-76
2021/10/01 09:46:09;;;;;;;3.00;1.20;;;12.20;93.50;;;;;;5072100;28;20029;-77
2021/10/01 09:48:36;;;;;;;4.68;1.20;;;12.40;93.30;;;;;;5072026;28;20036;-76
2021/10/01 09:51:15;;;;;;;3.42;1.35;;;12.40;92.80;;;;;;5071379;28;20020;-78
2021/10/01 09:53:49;;;;;;;4.00;1.00;;;12.50;92.60;;;;;;5073118;28;20024;-77
2021/10/01 09:56:31;;;;;;;6.18;0.90;;;12.50;92.60;;;;;;5071538;28;20090;-76
2021/10/01 09:59:21;;;;;;;5.05;0.90;;;12.60;92.60;;;;;;5072088;28;20037;-76
2021/10/01 10:01:59;;;;;;;4.07;1.13;;;12.70;92.00;;;;;;5071852;28;20492;-77
2021/10/01 10:04:27;;;;;;;5.93;1.67;;;12.80;91.30;;;;;;5071513;28;20032;-77
2021/10/01 10:06:53;;;;;;;2.63;1.05;;;12.90;90.50;;;;;;5071618;28;20048;-76
2021/10/01 10:09:34;;;;;;;3.83;0.95;;;13.00;90.60;;;;;;5071367;28;20031;-77
2021/10/01 10:12:00;;;;;;;4.35;1.00;;;12.90;90.50;;;;;;5071714;28;20031;-76
2021/10/01 10:14:27;;;;;;;2.05;1.08;;;13.00;90.70;;;;;;5071435;28;20025;-76
2021/10/01 10:16:57;;;;;;;2.47;0.90;;;13.00;90.60;;;;;;5072749;28;20025;-76
2021/10/01 10:19:23;;;;;;;3.10;1.08;;;13.00;91.00;;;;;;5071095;28;20040;-76
2021/10/01 10:21:49;;;;;;;2.60;1.02;;;13.00;91.00;;;;;;5071532;28;20029;-77
2021/10/01 10:24:16;;;;;;;3.08;1.10;;;13.10;90.90;;;;;;5072539;28;20024;-77
2021/10/01 10:26:42;;;;;;;2.30;0.93;;;13.10;91.30;;;;;;5071300;28;20024;-76
2021/10/01 10:29:11;;;;;;;3.10;1.00;;;13.20;91.40;;;;;;5071340;28;20377;-77
2021/10/01 10:31:43;;;;;;;4.55;0.93;;;13.40;91.00;;;;;;5072578;28;20031;-76
2021/10/01 10:34:25;;;;;;;5.22;1.20;;;13.50;90.50;;;;;;5070863;28;20579;-77
2021/10/01 10:37:10;;;;;;;4.05;1.10;;;13.60;90.20;;;;;;5074620;28;20059;-77
2021/10/01 10:39:42;;;;;;;5.82;1.23;;;13.50;90.40;;;;;;5076150;28;20029;-76
2021/10/01 10:42:10;;;;;;;1.63;1.23;;;13.60;90.50;;;;;;5075542;28;20024;-77
2021/10/01 10:45:14;;;;;;;3.83;0.82;;;13.70;90.40;;;;;;5074623;28;20031;-76
2021/10/01 10:48:04;;;;;;;2.90;1.10;;;13.80;90.20;;;;;;5074845;28;20033;-76
2021/10/01 10:50:39;;;;;;;2.45;1.20;;;13.90;89.80;;;;;;5074625;28;20025;-76
2021/10/01 10:53:05;;;;;;;3.28;1.08;;;13.90;89.80;;;;;;5073973;28;20052;-77
2021/10/01 10:55:50;;;;;;;5.05;1.00;;;14.00;90.00;;;;;;5091553;28;20059;-77
2021/10/01 10:58:22;;;;;;;3.38;1.00;;;14.00;90.00;;;;;;5091020;28;20036;-76
2021/10/01 11:00:51;;;;;;;3.47;1.10;;;14.00;88.60;;;;;;5091394;28;20027;-76
2021/10/01 11:03:34;;;;;;;5.07;1.30;;;14.00;89.10;;;;;;5073856;28;20033;-77
2021/10/01 11:06:18;;;;;;;4.18;1.35;;;14.20;89.90;;;;;;5074687;28;20036;-77
2021/10/01 11:09:05;;;;;;;1.90;1.00;;;14.30;89.40;;;;;;5075743;28;20028;-76
2021/10/01 11:11:33;;;;;;;3.92;1.02;;;14.40;86.70;;;;;;5074131;28;20029;-77
2021/10/01 11:14:14;;;;;;;3.28;1.10;;;14.50;84.70;;;;;;5075283;28;20043;-77
2021/10/01 11:17:00;;;;;;;4.35;1.05;;;14.60;85.20;;;;;;5075408;28;20023;-76
2021/10/01 11:19:37;;;;;;;4.97;1.10;;;14.50;85.60;;;;;;5063782;28;20123;-77
2021/10/01 11:22:32;;;;;;;4.03;1.17;;;14.60;85.00;;;;;;5074173;28;20032;-76
2021/10/01 11:25:17;;;;;;;3.47;1.02;;;14.60;84.50;;;;;;5075306;28;20481;-76
2021/10/01 11:28:02;;;;;;;2.13;0.90;;;14.80;83.90;;;;;;5074149;28;20036;-77
2021/10/01 11:30:29;;;;;;;2.38;0.82;;;14.80;84.80;;;;;;5073621;28;20032;-76
2021/10/01 11:33:05;;;;;;;3.08;0.90;;;14.90;84.00;;;;;;5075239;28;20110;-76
2021/10/01 11:35:30;;;;;;;1.30;0.90;;;15.00;81.10;;;;;;5074825;28;20039;-76
2021/10/01 11:37:58;;;;;;;5.95;1.40;;;15.10;78.50;;;;;;5073576;28;20032;-77
2021/10/01 11:40:31;;;;;;;2.05;0.75;;;15.10;79.10;;;;;;5073608;28;20370;-77
2021/10/01 11:42:58;;;;;;;3.10;1.17;;;15.20;78.90;;;;;;5074037;28;20066;-76
2021/10/01 11:45:34;;;;;;;2.42;0.80;;;15.20;78.90;;;;;;5072989;28;20021;-76
2021/10/01 11:48:08;;;;;;;3.85;0.88;;;15.20;78.80;;;;;;5075056;28;20051;-77
2021/10/01 11:50:40;;;;;;;4.25;0.88;;;15.20;79.40;;;;;;5073637;28;20043;-76
2021/10/01 11:53:27;;;;;;;2.08;0.80;;;15.30;81.00;;;;;;5074779;28;20474;-77
2021/10/01 11:55:55;;;;;;;1.33;0.80;;;15.40;82.30;;;;;;5073245;28;20048;-76
2021/10/01 11:58:24;;;;;;;2.03;0.85;;;15.50;82.40;;;;;;5072838;28;20119;-77
2021/10/01 12:00:50;;;;;;;1.48;0.80;;;15.70;83.40;;;;;;5073229;28;20029;-77
2021/10/01 12:03:17;;;;;;;3.38;0.77;;;15.80;82.30;;;;;;5073849;28;20040;-77
2021/10/01 12:05:48;;;;;;;1.20;0.60;;;16.10;80.20;;;;;;5073386;28;20512;-77
2021/10/01 12:08:17;;;;;;;3.30;0.95;;;16.40;78.70;;;;;;5072686;28;20037;-77
2021/10/01 12:10:46;;;;;;;2.75;0.80;;;16.60;78.70;;;;;;5073137;28;20466;-77
2021/10/01 12:13:18;;;;;;;4.20;0.63;;;16.80;76.10;;;;;;5073750;28;20025;-77
2021/10/01 12:15:50;;;;;;;1.30;0.80;;;17.00;75.80;;;;;;5073009;28;20021;-77
2021/10/01 12:18:34;;;;;;;1.70;0.40;;;17.30;75.70;;;;;;5072363;28;20032;-77
2021/10/01 12:21:18;;;;;;;1.27;0.60;;;17.60;69.40;;;;;;5074053;28;20028;-77
2021/10/01 12:23:54;;;;;;;2.38;0.70;;;17.80;66.90;;;;;;5074005;28;20078;-77
2021/10/01 12:26:23;;;;;;;2.00;0.60;;;18.00;65.00;;;;;;5072585;28;20510;-77
2021/10/01 12:28:55;;;;;;;1.33;0.40;;;18.20;64.60;;;;;;5073807;28;20068;-76
2021/10/01 12:31:22;;;;;;;2.75;0.50;;;18.40;64.20;;;;;;5072202;28;20029;-77
2021/10/01 12:33:48;;;;;;;1.60;0.70;;;18.60;65.70;;;;;;5073864;28;20086;-77
2021/10/01 12:36:16;;;;;;;3.22;0.70;;;18.80;63.80;;;;;;5073418;28;20032;-77
2021/10/01 12:38:42;;;;;;;3.70;1.33;;;18.90;62.20;;;;;;5072979;28;20384;-77
2021/10/01 12:41:13;;;;;;;2.35;1.20;;;19.10;61.80;;;;;;5073934;28;20021;-77
2021/10/01 12:43:48;;;;;;;2.42;0.90;;;19.20;61.40;;;;;;5072870;28;20466;-77
2021/10/01 12:46:36;;;;;;;1.42;0.73;;;19.40;62.10;;;;;;5072163;28;20489;-77
2021/10/01 12:49:24;;;;;;;2.38;0.60;;;19.80;58.30;;;;;;5072817;28;20040;-77
2021/10/01 12:52:00;;;;;;;2.20;0.70;;;20.30;58.70;;;;;;5073287;28;20028;-77
2021/10/01 12:54:33;;;;;;;2.17;0.70;;;21.00;56.30;;;;;;5072248;28;20025;-77
2021/10/01 12:57:15;;;;;;;2.15;0.60;;;21.50;53.70;;;;;;5071799;28;20509;-79
2021/10/01 12:59:53;;;;;;;2.00;0.70;;;22.10;51.30;;;;;;5089245;28;20029;-77
2021/10/01 13:02:39;;;;;;;1.23;0.65;;;22.50;51.40;;;;;;5073113;28;20029;-78
2021/10/01 13:05:17;;;;;;;2.08;0.70;;;22.80;49.90;;;;;;5072589;28;20127;-77
2021/10/01 13:07:45;;;;;;;1.83;0.70;;;23.20;50.10;;;;;;5088972;28;20028;-77
2021/10/01 13:10:17;;;;;;;1.23;0.47;;;23.80;49.70;;;;;;5072697;28;20033;-77
2021/10/01 13:12:47;;;;;;;;;;;24.30;48.70;;;;;;5073715;28;20024;-77
2021/10/01 13:15:17;;;;;;;3.63;0.60;;;24.90;46.40;;;;;;5071696;28;19911;-79
2021/10/01 13:17:57;;;;;;;1.75;0.57;;;25.20;46.20;;;;;;5072228;28;20032;-77
2021/10/01 13:20:26;;;;;;;1.17;0.68;;;25.80;46.40;;;;;;5071955;28;20507;-78
2021/10/01 13:23:07;;;;;;;2.63;0.70;;;26.40;45.00;;;;;;5088901;28;20033;-78
2021/10/01 13:25:35;;;;;;;;;;;26.90;44.10;;;;;;5072008;28;20029;-78
2021/10/01 13:28:02;;;;;;;3.67;0.60;;;27.40;42.90;;;;;;5073234;28;19964;-79
2021/10/01 13:30:28;;;;;;;1.55;0.77;;;27.90;43.90;;;;;;5071525;28;20085;-78
2021/10/01 13:32:54;;;;;;;1.13;0.70;;;28.20;42.70;;;;;;5071766;28;20025;-78
2021/10/01 13:35:35;;;;;;;;;;;;;;;;;;;;;
2021/10/01 13:38:04;;;;;;;;;;;28.50;40.60;;;;;;5073342;28;20449;-78
2021/10/01 13:40:30;;;;;;;1.63;0.57;;;28.90;40.10;;;;;;5070879;28;19947;-78
2021/10/01 13:42:56;;;;;;;2.63;0.70;;;29.00;41.70;;;;;;5071375;28;20028;-78
2021/10/01 13:45:22;;;;;;;1.02;0.70;;;28.70;40.80;;;;;;5071049;28;20025;-78
2021/10/01 13:47:48;;;;;;;4.18;0.68;;;28.40;41.70;;;;;;5072479;28;20465;-78
2021/10/01 13:50:14;;;;;;;2.88;0.63;;;28.00;42.10;;;;;;5072558;28;20389;-77
2021/10/01 13:52:40;;;;;;;1.27;0.70;;;28.10;43.30;;;;;;5071176;28;20048;-78
2021/10/01 13:55:07;;;;;;;2.13;0.70;;;28.10;42.10;;;;;;5071351;28;20527;-77
2021/10/01 13:57:33;;;;;;;1.67;0.70;;;28.30;42.10;;;;;;5071700;28;20113;-77
2021/10/01 13:59:59;;;;;;;1.40;0.50;;;27.70;42.60;;;;;;5071260;28;20029;-77
2021/10/01 14:02:24;;;;;;;1.38;0.47;;;27.30;43.70;;;;;;5070697;28;20122;-77
2021/10/01 14:04:50;;;;;;;2.30;0.60;;;26.60;44.10;;;;;;5070861;28;20029;-77
2021/10/01 14:07:16;;;;;;;1.05;0.40;;;25.80;45.00;;;;;;5071578;28;20040;-78
2021/10/01 14:09:42;;;;;;;4.80;0.63;;;25.40;47.00;;;;;;5074402;28;20453;-77
2021/10/01 14:12:08;;;;;;;1.70;0.50;;;24.50;47.70;;;;;;5075128;28;20050;-77
2021/10/01 14:14:33;;;;;;;1.45;0.50;;;24.10;48.70;;;;;;5074185;28;20025;-77
2021/10/01 14:16:59;;;;;;;1.80;0.60;;;23.80;49.40;;;;;;5076453;28;20102;-77
2021/10/01 14:19:24;;;;;;;3.72;0.75;;;23.30;50.30;;;;;;5074388;28;20024;-77
2021/10/01 14:21:50;;;;;;;1.20;0.63;;;23.10;51.10;;;;;;5076136;28;20047;-77
2021/10/01 14:24:16;;;;;;;1.90;0.60;;;22.70;52.10;;;;;;5074665;28;20024;-81
2021/10/01 14:26:42;;;;;;;1.63;0.60;;;22.70;52.10;;;;;;5074942;28;20024;-77
2021/10/01 14:29:07;;;;;;;1.10;0.60;;;22.70;52.40;;;;;;5074932;28;20511;-77
2021/10/01 14:31:33;;;;;;;4.30;0.70;;;22.40;53.10;;;;;;5075645;28;20021;-77
2021/10/01 14:33:59;;;;;;;0.65;0.60;;;22.10;53.70;;;;;;5075814;28;20024;-77
2021/10/01 14:36:25;;;;;;;1.98;0.60;;;21.80;54.40;;;;;;5074320;28;20410;-77
2021/10/01 14:38:51;;;;;;;1.65;0.60;;;21.60;55.30;;;;;;5075799;28;20273;-77
2021/10/01 14:41:17;;;;;;;3.20;0.50;;;21.30;55.90;;;;;;5074676;28;20028;-77